createdAt,value
2019-06-26T00:00:01.686Z,35.50
2019-06-26T00:02:30.233Z,32.10
2019-06-26T00:04:58.809Z,31.03
2019-06-26T00:07:27.433Z,30.60
2019-06-26T00:09:56.083Z,28.23
2019-06-26T00:12:24.727Z,25.87
2019-06-26T00:14:53.344Z,24.90
2019-06-26T00:17:21.913Z,25.10
2019-06-26T00:19:50.401Z,25.13
2019-06-26T00:22:18.988Z,28.17
2019-06-26T00:24:47.572Z,28.33
2019-06-26T00:27:16.145Z,28.77
2019-06-26T00:29:44.644Z,29.47
2019-06-26T00:32:13.296Z,30.57
2019-06-26T00:34:41.933Z,32.10
2019-06-26T00:37:10.491Z,32.37
2019-06-26T00:39:39.053Z,32.57
2019-06-26T00:42:07.709Z,33.97
2019-06-26T00:44:36.257Z,33.00
2019-06-26T00:47:04.977Z,30.43
2019-06-26T00:49:33.541Z,30.93
2019-06-26T00:52:02.256Z,34.00
2019-06-26T00:54:30.884Z,29.70
2019-06-26T00:56:59.376Z,27.03
2019-06-26T00:59:27.981Z,27.50
2019-06-26T01:01:56.611Z,26.67
2019-06-26T01:04:32.644Z,25.13
2019-06-26T01:07:01.337Z,20.37
2019-06-26T01:09:29.947Z,23.67
2019-06-26T01:11:58.529Z,22.80
2019-06-26T01:14:27.101Z,22.23
2019-06-26T01:16:55.567Z,21.80
2019-06-26T01:19:24.122Z,21.40
2019-06-26T01:21:52.686Z,22.33
2019-06-26T01:24:21.254Z,21.13
2019-06-26T01:26:49.976Z,25.20
2019-06-26T01:29:18.542Z,26.80
2019-06-26T01:31:47.096Z,32.47
2019-06-26T01:34:15.719Z,32.27
2019-06-26T01:36:44.284Z,33.17
2019-06-26T01:39:12.788Z,30.20
2019-06-26T01:41:41.410Z,31.13
2019-06-26T01:44:14.718Z,34.73
2019-06-26T01:46:40.416Z,36.53
2019-06-26T01:49:08.945Z,39.00
2019-06-26T01:51:37.529Z,38.53
2019-06-26T01:54:06.169Z,35.90
2019-06-26T01:56:34.799Z,36.03
2019-06-26T01:59:03.336Z,36.63
2019-06-26T02:01:32.055Z,34.80
2019-06-26T02:04:00.644Z,32.27
2019-06-26T02:06:29.284Z,30.10
2019-06-26T02:08:57.830Z,30.70
2019-06-26T02:11:26.347Z,31.63
2019-06-26T02:13:55.123Z,30.63
2019-06-26T02:16:23.720Z,32.67
2019-06-26T02:18:53.909Z,34.60
2019-06-26T02:21:22.461Z,32.93
2019-06-26T02:23:51.019Z,32.33
2019-06-26T02:26:19.719Z,38.13
2019-06-26T02:28:48.304Z,40.93
2019-06-26T02:31:16.995Z,36.10
2019-06-26T02:33:45.648Z,38.53
2019-06-26T02:36:14.241Z,42.03
2019-06-26T02:38:42.871Z,38.97
2019-06-26T02:41:11.774Z,38.53
2019-06-26T02:43:40.411Z,42.10
2019-06-26T02:46:09.052Z,43.20
2019-06-26T02:48:37.691Z,43.10
2019-06-26T02:51:06.267Z,41.93
2019-06-26T02:53:34.898Z,33.20
2019-06-26T02:56:03.612Z,31.00
2019-06-26T02:58:32.250Z,31.40
2019-06-26T03:01:00.888Z,33.07
2019-06-26T03:03:29.506Z,36.97
2019-06-26T03:05:58.232Z,36.30
2019-06-26T03:08:26.811Z,39.87
2019-06-26T03:10:55.514Z,40.17
2019-06-26T03:13:24.231Z,41.77
2019-06-26T03:15:52.972Z,38.00
2019-06-26T03:18:21.550Z,34.70
2019-06-26T03:20:57.813Z,38.67
2019-06-26T03:23:26.521Z,36.23
2019-06-26T03:25:55.164Z,38.70
2019-06-26T03:28:23.823Z,36.93
2019-06-26T03:30:52.443Z,35.47
2019-06-26T03:33:20.989Z,33.57
2019-06-26T03:35:49.564Z,34.67
2019-06-26T03:38:18.178Z,33.20
2019-06-26T03:40:46.816Z,29.73
2019-06-26T03:43:15.420Z,19.57
2019-06-26T03:45:43.911Z,20.00
2019-06-26T03:48:12.387Z,17.63
2019-06-26T03:50:41.142Z,16.20
2019-06-26T03:53:09.800Z,15.70
2019-06-26T03:55:38.349Z,15.47
2019-06-26T03:58:06.937Z,15.53
2019-06-26T04:00:44.864Z,15.87
2019-06-26T04:03:13.430Z,14.93
2019-06-26T04:05:42.066Z,15.47
2019-06-26T04:08:10.765Z,16.23
2019-06-26T04:10:42.902Z,14.10
2019-06-26T04:13:09.636Z,14.40
2019-06-26T04:15:42.519Z,12.50
2019-06-26T04:18:08.512Z,12.10
2019-06-26T04:20:37.284Z,11.13
2019-06-26T04:23:05.984Z,10.40
2019-06-26T04:25:37.853Z,10.80
2019-06-26T04:28:06.446Z,12.27
2019-06-26T04:30:35.335Z,11.93
2019-06-26T04:33:04.052Z,11.37
2019-06-26T04:35:32.629Z,13.57
2019-06-26T04:38:01.274Z,16.67
2019-06-26T04:40:29.814Z,16.60
2019-06-26T04:42:58.380Z,16.33
2019-06-26T04:45:27.014Z,17.13
2019-06-26T04:47:55.692Z,15.80
2019-06-26T04:50:24.497Z,18.00
2019-06-26T04:52:53.079Z,19.57
2019-06-26T04:55:21.592Z,20.13
2019-06-26T04:57:50.186Z,22.97
2019-06-26T05:00:21.841Z,21.33
2019-06-26T05:02:50.192Z,23.03
2019-06-26T05:05:19.014Z,21.27
2019-06-26T05:07:47.569Z,23.13
2019-06-26T05:10:16.493Z,22.27
2019-06-26T05:12:45.044Z,21.73
2019-06-26T05:15:13.909Z,18.87
2019-06-26T05:17:42.496Z,18.07
2019-06-26T05:20:11.619Z,19.57
2019-06-26T05:22:40.273Z,17.37
2019-06-26T05:25:09.527Z,20.97
2019-06-26T05:27:38.108Z,22.27
2019-06-26T05:30:08.724Z,26.47
2019-06-26T05:32:37.418Z,28.93
2019-06-26T05:35:07.422Z,27.23
2019-06-26T05:37:36.075Z,32.00
2019-06-26T05:40:10.172Z,35.03
2019-06-26T05:42:38.873Z,25.70
2019-06-26T05:45:08.403Z,24.27
2019-06-26T05:47:36.975Z,22.87
2019-06-26T05:50:07.557Z,20.70
2019-06-26T05:52:36.280Z,20.27
2019-06-26T05:55:05.792Z,20.03
2019-06-26T05:57:34.602Z,21.67
2019-06-26T06:00:07.639Z,22.30
2019-06-26T06:02:36.307Z,23.90
2019-06-26T06:05:07.424Z,25.03
2019-06-26T06:07:36.116Z,23.87
2019-06-26T06:10:05.828Z,23.93
2019-06-26T06:12:34.478Z,21.60
2019-06-26T06:15:04.408Z,19.83
2019-06-26T06:17:32.961Z,19.37
2019-06-26T06:20:01.747Z,15.83
2019-06-26T06:22:30.790Z,12.23
2019-06-26T06:24:59.495Z,10.70
2019-06-26T06:27:28.135Z,11.27
2019-06-26T06:29:56.989Z,13.60
2019-06-26T06:32:25.676Z,16.87
2019-06-26T06:34:54.392Z,13.27
2019-06-26T06:37:22.985Z,9.77
2019-06-26T06:39:51.609Z,8.70
2019-06-26T06:42:20.264Z,10.60
2019-06-26T06:44:48.860Z,8.83
2019-06-26T06:47:17.568Z,8.67
2019-06-26T06:49:46.148Z,6.77
2019-06-26T06:52:16.795Z,6.00
2019-06-26T06:54:45.136Z,6.10
2019-06-26T06:57:13.726Z,5.73
2019-06-26T06:59:42.260Z,5.13
2019-06-26T07:02:10.950Z,5.43
2019-06-26T07:04:39.518Z,9.33
2019-06-26T07:07:08.227Z,13.20
2019-06-26T07:09:36.953Z,19.80
2019-06-26T07:12:05.691Z,21.93
2019-06-26T07:14:34.335Z,16.63
2019-06-26T07:17:16.085Z,15.03
2019-06-26T07:19:33.373Z,14.10
2019-06-26T07:22:02.010Z,13.43
2019-06-26T07:24:30.699Z,12.23
2019-06-26T07:26:59.267Z,9.63
2019-06-26T07:29:27.891Z,8.93
2019-06-26T07:31:56.512Z,8.83
2019-06-26T07:34:25.025Z,8.57
2019-06-26T07:36:53.642Z,7.50
2019-06-26T07:39:22.215Z,7.27
2019-06-26T07:41:50.792Z,6.73
2019-06-26T07:44:19.379Z,6.57
2019-06-26T07:46:47.955Z,6.67
2019-06-26T07:49:16.603Z,8.83
2019-06-26T07:51:45.369Z,7.90
2019-06-26T07:54:13.974Z,6.93
2019-06-26T07:56:42.638Z,7.87
2019-06-26T07:59:11.148Z,6.40
2019-06-26T08:01:39.717Z,6.17
2019-06-26T08:04:08.404Z,5.70
2019-06-26T08:06:37.115Z,5.73
2019-06-26T08:09:07.392Z,5.17
2019-06-26T08:11:36.011Z,6.43
2019-06-26T08:14:04.805Z,5.33
2019-06-26T08:16:34.476Z,5.67
2019-06-26T08:19:03.217Z,5.53
2019-06-26T08:21:31.833Z,5.80
2019-06-26T08:24:00.583Z,6.37
2019-06-26T08:26:29.304Z,5.73
2019-06-26T08:28:57.923Z,6.20
2019-06-26T08:31:26.555Z,5.57
2019-06-26T08:33:55.166Z,6.90
2019-06-26T08:36:23.965Z,6.53
2019-06-26T08:38:52.635Z,5.60
2019-06-26T08:41:21.452Z,6.40
2019-06-26T08:43:49.995Z,6.20
2019-06-26T08:46:18.571Z,6.33
2019-06-26T08:48:47.196Z,5.87
2019-06-26T08:51:15.788Z,6.23
2019-06-26T08:53:44.437Z,6.57
2019-06-26T08:56:13.933Z,6.73
2019-06-26T08:58:42.746Z,6.33
2019-06-26T09:01:11.289Z,6.37
2019-06-26T09:03:42.132Z,7.30
2019-06-26T09:06:10.215Z,6.13
2019-06-26T09:08:38.887Z,6.20
2019-06-26T09:11:07.595Z,7.07
2019-06-26T09:13:36.256Z,5.90
2019-06-26T09:16:04.973Z,5.83
2019-06-26T09:18:35.870Z,5.33
2019-06-26T09:21:03.978Z,5.50
2019-06-26T09:23:32.569Z,5.80
2019-06-26T09:26:01.232Z,6.10
2019-06-26T09:28:29.975Z,5.73
2019-06-26T09:30:59.315Z,5.97
2019-06-26T09:33:31.226Z,5.53
2019-06-26T09:35:58.199Z,4.77
2019-06-26T09:38:26.731Z,6.47
2019-06-26T09:40:55.466Z,5.30
2019-06-26T09:43:24.079Z,5.60
2019-06-26T09:45:52.668Z,6.53
2019-06-26T09:48:21.309Z,6.03
2019-06-26T09:50:49.964Z,6.30
2019-06-26T09:53:18.627Z,6.10
2019-06-26T09:55:47.219Z,5.50
2019-06-26T09:58:15.831Z,6.10
2019-06-26T10:00:45.278Z,5.97
2019-06-26T10:03:13.829Z,5.60
2019-06-26T10:05:42.697Z,5.27
2019-06-26T10:08:11.423Z,5.07
2019-06-26T10:10:40.049Z,6.10
2019-06-26T10:13:08.724Z,5.67
2019-06-26T10:15:37.462Z,5.43
2019-06-26T10:18:06.168Z,5.27
2019-06-26T10:20:34.838Z,5.47
2019-06-26T10:23:03.392Z,5.53
2019-06-26T10:25:32.211Z,6.30
2019-06-26T10:28:00.927Z,5.27
2019-06-26T10:30:29.723Z,5.67
2019-06-26T10:32:58.355Z,5.60
2019-06-26T10:35:26.918Z,5.60
2019-06-26T10:37:55.532Z,4.67
2019-06-26T10:40:24.189Z,5.93
2019-06-26T10:42:52.899Z,4.90
2019-06-26T10:45:21.783Z,4.60
2019-06-26T10:47:50.370Z,4.57
2019-06-26T10:50:19.256Z,4.70
2019-06-26T10:52:47.805Z,4.67
2019-06-26T10:55:18.172Z,6.27
2019-06-26T10:57:47.071Z,5.53
2019-06-26T11:00:16.245Z,4.97
2019-06-26T11:02:44.950Z,5.17
2019-06-26T11:05:13.790Z,5.17
2019-06-26T11:07:42.411Z,6.33
2019-06-26T11:10:11.343Z,5.13
2019-06-26T11:12:39.953Z,5.27
2019-06-26T11:15:09.067Z,5.23
2019-06-26T11:17:37.677Z,4.73
2019-06-26T11:20:08.649Z,4.37
2019-06-26T11:22:37.362Z,4.53
2019-06-26T11:25:07.244Z,5.17
2019-06-26T11:27:35.891Z,4.50
2019-06-26T11:30:10.500Z,4.77
2019-06-26T11:32:39.181Z,4.50
2019-06-26T11:35:09.511Z,5.00
2019-06-26T11:37:38.203Z,4.77
2019-06-26T11:40:08.526Z,5.47
2019-06-26T11:42:37.317Z,4.47
2019-06-26T11:45:10.380Z,5.53
2019-06-26T11:47:39.090Z,4.70
2019-06-26T11:50:09.174Z,4.27
2019-06-26T11:52:38.338Z,3.93
2019-06-26T11:55:09.230Z,4.10
2019-06-26T11:57:38.265Z,3.50
2019-06-26T12:00:26.492Z,4.60
2019-06-26T12:02:55.125Z,4.00
2019-06-26T12:05:23.878Z,4.53
2019-06-26T12:07:52.582Z,4.50
2019-06-26T12:10:21.699Z,4.67
2019-06-26T12:12:50.354Z,4.30
2019-06-26T12:15:21.291Z,3.73
2019-06-26T12:17:49.909Z,4.53
2019-06-26T12:20:19.939Z,4.80
2019-06-26T12:22:48.820Z,5.63
2019-06-26T12:25:17.542Z,4.53
2019-06-26T12:27:46.286Z,4.20
2019-06-26T12:30:15.598Z,4.23
2019-06-26T12:33:01.486Z,4.17
2019-06-26T12:35:14.736Z,4.10
2019-06-26T12:37:43.285Z,4.07
2019-06-26T12:40:12.407Z,3.97
2019-06-26T12:42:41.126Z,4.33
2019-06-26T12:45:10.431Z,3.53
2019-06-26T12:47:39.153Z,3.50
2019-06-26T12:50:08.757Z,3.67
2019-06-26T12:52:37.382Z,4.17
2019-06-26T12:55:06.632Z,3.83
2019-06-26T12:57:35.282Z,3.20
2019-06-26T13:00:12.014Z,4.03
2019-06-26T13:02:41.004Z,3.60
2019-06-26T13:05:10.300Z,3.37
2019-06-26T13:07:38.966Z,4.13
2019-06-26T13:10:09.048Z,3.30
2019-06-26T13:12:38.008Z,3.27
2019-06-26T13:15:08.025Z,3.50
2019-06-26T13:17:36.740Z,3.77
2019-06-26T13:20:09.641Z,2.80
2019-06-26T13:22:37.354Z,3.13
2019-06-26T13:25:08.051Z,3.47
2019-06-26T13:27:36.662Z,3.10
2019-06-26T13:30:07.316Z,2.80
2019-06-26T13:32:35.921Z,3.33
2019-06-26T13:35:05.860Z,3.40
2019-06-26T13:37:34.513Z,3.13
2019-06-26T13:40:03.800Z,3.20
2019-06-26T13:42:32.364Z,3.40
2019-06-26T13:45:00.944Z,3.13
2019-06-26T13:47:29.627Z,2.90
2019-06-26T13:49:58.267Z,3.80
2019-06-26T13:52:26.883Z,3.20
2019-06-26T13:54:57.360Z,3.40
2019-06-26T13:57:25.723Z,3.40
2019-06-26T13:59:54.404Z,3.23
2019-06-26T14:02:22.908Z,3.37
2019-06-26T14:04:51.657Z,3.10
2019-06-26T14:07:20.284Z,3.30
2019-06-26T14:09:48.858Z,3.87
2019-06-26T14:12:19.229Z,2.70
2019-06-26T14:14:57.488Z,3.10
2019-06-26T14:17:18.138Z,2.67
2019-06-26T14:19:46.814Z,3.00
2019-06-26T14:22:15.471Z,3.53
2019-06-26T14:24:44.145Z,3.40
2019-06-26T14:27:12.699Z,2.90
2019-06-26T14:29:41.269Z,3.10
2019-06-26T14:32:09.819Z,2.97
2019-06-26T14:34:38.369Z,2.30
2019-06-26T14:37:06.959Z,2.30
2019-06-26T14:39:35.518Z,2.00
2019-06-26T14:42:04.301Z,2.57
2019-06-26T14:44:32.915Z,2.03
2019-06-26T14:47:01.498Z,2.37
2019-06-26T14:49:30.072Z,1.90
2019-06-26T14:51:58.664Z,2.03
2019-06-26T14:54:27.250Z,2.20
2019-06-26T14:56:55.801Z,2.80
2019-06-26T14:59:24.418Z,2.87
2019-06-26T15:01:53.019Z,2.90
2019-06-26T15:04:21.509Z,2.20
2019-06-26T15:06:50.189Z,2.67
2019-06-26T15:09:18.723Z,3.00
2019-06-26T15:11:47.393Z,3.13
2019-06-26T15:14:15.966Z,2.40
2019-06-26T15:16:44.596Z,2.53
2019-06-26T15:19:13.172Z,2.47
2019-06-26T15:21:48.649Z,2.17
2019-06-26T15:24:12.069Z,1.80
2019-06-26T15:26:40.729Z,1.87
2019-06-26T15:29:09.315Z,2.40
2019-06-26T15:31:37.861Z,2.27
2019-06-26T15:34:06.387Z,2.30
2019-06-26T15:36:35.044Z,2.20
2019-06-26T15:39:05.658Z,2.00
2019-06-26T15:41:34.300Z,2.70
2019-06-26T15:44:03.350Z,2.70
2019-06-26T15:46:31.955Z,3.10
2019-06-26T15:49:00.531Z,2.53
2019-06-26T15:51:29.073Z,2.27
2019-06-26T15:53:59.986Z,2.33
2019-06-26T15:56:27.858Z,2.90
2019-06-26T15:58:56.350Z,2.67
2019-06-26T16:01:25.062Z,2.87
2019-06-26T16:03:53.683Z,3.17
2019-06-26T16:06:22.432Z,2.63
2019-06-26T16:08:50.981Z,2.33
2019-06-26T16:11:19.564Z,2.30
2019-06-26T16:13:48.153Z,2.73
2019-06-26T16:16:16.954Z,2.53
2019-06-26T16:18:47.186Z,2.23
2019-06-26T16:21:15.880Z,2.57
2019-06-26T16:23:44.517Z,2.87
2019-06-26T16:26:13.299Z,3.23
2019-06-26T16:28:41.908Z,2.83
2019-06-26T16:31:10.474Z,2.80
2019-06-26T16:33:39.077Z,2.60
2019-06-26T16:36:07.738Z,2.87
2019-06-26T16:38:36.267Z,2.40
2019-06-26T16:41:04.896Z,2.50
2019-06-26T16:43:33.518Z,2.40
2019-06-26T16:46:02.298Z,2.43
2019-06-26T16:48:31.046Z,2.30
2019-06-26T16:50:59.631Z,2.50
2019-06-26T16:53:28.180Z,2.47
2019-06-26T16:55:56.754Z,2.47
2019-06-26T16:58:25.291Z,2.63
2019-06-26T17:00:53.849Z,3.23
2019-06-26T17:03:22.425Z,2.53
2019-06-26T17:05:51.040Z,3.00
2019-06-26T17:08:19.587Z,2.57
2019-06-26T17:10:48.339Z,2.43
2019-06-26T17:13:17.005Z,2.80
2019-06-26T17:15:45.635Z,2.80
2019-06-26T17:18:14.250Z,2.70
2019-06-26T17:20:42.872Z,2.73
2019-06-26T17:23:11.385Z,2.47
2019-06-26T17:25:39.945Z,2.53
2019-06-26T17:28:08.566Z,2.80
2019-06-26T17:30:44.602Z,2.70
2019-06-26T17:33:13.176Z,2.80
2019-06-26T17:35:42.021Z,2.30
2019-06-26T17:38:10.740Z,2.27
2019-06-26T17:40:39.299Z,2.63
2019-06-26T17:43:12.311Z,1.87
2019-06-26T17:45:38.321Z,2.20
2019-06-26T17:48:07.043Z,2.17
2019-06-26T17:50:35.671Z,2.27
2019-06-26T17:53:17.393Z,2.10
2019-06-26T17:55:34.464Z,2.23
2019-06-26T17:58:03.019Z,2.30
2019-06-26T18:00:35.896Z,3.00
2019-06-26T18:03:04.879Z,2.23
2019-06-26T18:05:33.498Z,2.37
2019-06-26T18:08:02.179Z,2.50
2019-06-26T18:10:30.783Z,2.07
2019-06-26T18:12:59.356Z,2.23
2019-06-26T18:15:27.985Z,1.90
2019-06-26T18:17:56.855Z,2.20
2019-06-26T18:20:25.430Z,2.63
2019-06-26T18:23:06.528Z,3.53
2019-06-26T18:25:24.197Z,2.00
2019-06-26T18:27:52.848Z,2.70
2019-06-26T18:30:22.735Z,2.20
2019-06-26T18:32:51.787Z,2.77
2019-06-26T18:35:20.707Z,2.63
2019-06-26T18:37:49.313Z,2.83
2019-06-26T18:40:23.679Z,3.00
2019-06-26T18:42:52.327Z,3.23
2019-06-26T18:45:21.010Z,3.30
2019-06-26T18:47:49.650Z,2.67
2019-06-26T18:50:18.281Z,2.80
2019-06-26T18:52:46.999Z,3.10
2019-06-26T18:55:15.706Z,5.60
2019-06-26T18:57:44.245Z,4.90
2019-06-26T19:00:13.467Z,4.50
2019-06-26T19:02:42.055Z,3.00
2019-06-26T19:05:11.072Z,2.93
2019-06-26T19:07:39.868Z,2.37
2019-06-26T19:10:29.297Z,2.70
2019-06-26T19:12:57.884Z,2.60
2019-06-26T19:15:26.384Z,2.43
2019-06-26T19:17:55.029Z,2.77
2019-06-26T19:20:23.736Z,2.73
2019-06-26T19:22:52.322Z,2.00
2019-06-26T19:25:20.904Z,2.33
2019-06-26T19:27:49.492Z,2.40
2019-06-26T19:30:18.322Z,2.80
2019-06-26T19:32:46.920Z,2.80
2019-06-26T19:35:19.673Z,2.43
2019-06-26T19:37:47.596Z,2.70
2019-06-26T19:40:17.191Z,3.03
2019-06-26T19:42:45.832Z,3.23
2019-06-26T19:45:15.127Z,2.60
2019-06-26T19:47:43.762Z,2.73
2019-06-26T19:50:13.282Z,3.97
2019-06-26T19:52:41.955Z,3.37
2019-06-26T19:55:11.508Z,3.10
2019-06-26T19:57:40.159Z,2.93
2019-06-26T20:00:12.354Z,2.50
2019-06-26T20:02:41.083Z,2.70
2019-06-26T20:05:29.045Z,3.20
2019-06-26T20:07:57.709Z,3.40
2019-06-26T20:10:26.415Z,3.20
2019-06-26T20:12:56.599Z,3.33
2019-06-26T20:15:25.145Z,3.40
2019-06-26T20:17:53.795Z,3.10
2019-06-26T20:20:22.443Z,3.43
2019-06-26T20:22:50.928Z,3.53
2019-06-26T20:25:20.058Z,3.70
2019-06-26T20:27:48.279Z,3.37
2019-06-26T20:30:18.706Z,3.00
2019-06-26T20:32:47.404Z,3.17
2019-06-26T20:35:16.122Z,3.33
2019-06-26T20:37:44.779Z,2.93
2019-06-26T20:40:13.691Z,3.60
2019-06-26T20:42:42.423Z,3.17
2019-06-26T20:45:13.150Z,3.37
2019-06-26T20:47:41.699Z,3.47
2019-06-26T20:50:10.362Z,3.00
2019-06-26T20:52:38.996Z,3.40
2019-06-26T20:55:07.942Z,3.83
2019-06-26T20:57:36.605Z,3.90
2019-06-26T21:00:06.586Z,3.70
2019-06-26T21:02:35.131Z,4.10
2019-06-26T21:05:05.445Z,3.60
2019-06-26T21:07:34.086Z,4.00
2019-06-26T21:10:02.742Z,3.90
2019-06-26T21:12:31.299Z,4.50
2019-06-26T21:14:59.928Z,4.43
2019-06-26T21:17:28.631Z,4.13
2019-06-26T21:19:57.325Z,4.27
2019-06-26T21:22:25.940Z,4.30
2019-06-26T21:24:54.496Z,4.37
2019-06-26T21:27:23.175Z,4.70
2019-06-26T21:29:51.746Z,3.80
2019-06-26T21:32:20.388Z,4.53
2019-06-26T21:34:49.173Z,4.07
2019-06-26T21:37:17.718Z,4.60
2019-06-26T21:39:46.404Z,5.33
2019-06-26T21:42:15.554Z,3.90
2019-06-26T21:44:44.200Z,4.97
2019-06-26T21:47:12.792Z,4.57
2019-06-26T21:49:41.435Z,4.73
2019-06-26T21:52:10.017Z,4.57
2019-06-26T21:54:39.462Z,4.63
2019-06-26T21:57:09.338Z,4.30
2019-06-26T21:59:38.235Z,4.10
2019-06-26T22:02:07.036Z,4.47
2019-06-26T22:04:35.897Z,4.43
2019-06-26T22:07:04.540Z,4.40
2019-06-26T22:09:33.294Z,4.73
2019-06-26T22:12:02.008Z,4.70
2019-06-26T22:14:30.609Z,4.80
2019-06-26T22:16:59.242Z,4.40
2019-06-26T22:19:27.943Z,5.17
2019-06-26T22:21:56.514Z,4.33
2019-06-26T22:24:25.196Z,4.73
2019-06-26T22:26:53.925Z,5.47
2019-06-26T22:29:22.408Z,4.00
2019-06-26T22:31:51.089Z,5.50
2019-06-26T22:34:19.900Z,4.37
2019-06-26T22:36:51.941Z,4.17
2019-06-26T22:39:18.730Z,5.97
2019-06-26T22:41:47.499Z,4.70
2019-06-26T22:44:16.226Z,4.33
2019-06-26T22:46:44.841Z,5.17
2019-06-26T22:49:13.559Z,4.70
2019-06-26T22:51:42.345Z,4.00
2019-06-26T22:54:10.937Z,4.83
2019-06-26T22:56:39.525Z,5.83
2019-06-26T22:59:08.351Z,5.70
2019-06-26T23:01:36.902Z,5.20
2019-06-26T23:04:05.511Z,5.30
2019-06-26T23:06:37.373Z,4.97
2019-06-26T23:09:06.129Z,4.77
2019-06-26T23:11:34.797Z,4.77
2019-06-26T23:14:03.847Z,5.33
2019-06-26T23:16:32.403Z,5.27
2019-06-26T23:19:01.015Z,5.03
2019-06-26T23:21:29.526Z,4.70
2019-06-26T23:23:58.240Z,5.17
2019-06-26T23:26:26.773Z,4.87
2019-06-26T23:28:55.289Z,4.73
2019-06-26T23:31:23.998Z,5.37
2019-06-26T23:33:52.631Z,4.50
2019-06-26T23:36:21.590Z,4.87
2019-06-26T23:38:50.168Z,4.83
2019-06-26T23:41:18.833Z,6.10
2019-06-26T23:43:47.641Z,5.30
2019-06-26T23:46:16.308Z,4.33
2019-06-26T23:48:45.873Z,5.30
2019-06-26T23:51:14.568Z,5.80
2019-06-26T23:53:43.188Z,5.30
2019-06-26T23:56:11.758Z,5.27
2019-06-26T23:58:40.383Z,5.40
